PWSweather.com
Personal Weather Stations
Station Observations
WATERF01
WaterfordIE

WaterfordIE

Lat: 52.2412507, Lon: -7.1414691

Elevation: 65

Station Type: Davis Vantage Vue

www.waterfordweather.com

High Low Average
Temperature 50.6°F10.3°C 46.1°F7.8°C 48.5°F9.2°C
Dew Point 50.2°F10.1°C 40.9°F4.9°C 45.0°F7.2°C
Winds 13.8 mph 22.2 kmh Calm Calm 4.0 mph WSW6.4 kmh WSW
Wind Gusts 25.3 mph40.7 kmh -- 8.0 mph12.9 kmh
Humidity 99% 75% 88%
Pressure 29.98 in1015.2 mb 29.73 in1006.8 mb -
Precipitation 0.00 in0.0 mm - -
Hour Temp Dew Point Humidity Winds Wind Gusts Pressure Precip Precip Rate Daily Precip Total
12:00 AM 50.1°F10.1°C 42.5°F5.8°C 75% 6.9 mph WNW11.1 kmh WNW 11.5 mph18.5 kmh 29.73 in1006.8 mb - 0.00 in0.0 mm 0.00 in0.0 mm
12:10 AM 49.9°F9.9°C 42.3°F5.7°C 75% 1.2 mph W1.9 kmh W 5.8 mph9.3 kmh 29.74 in1007.1 mb - 0.00 in0.0 mm 0.00 in0.0 mm
12:20 AM 49.7°F9.8°C 43.7°F6.5°C 80% 2.3 mph SSE3.7 kmh SSE 11.5 mph18.5 kmh 29.75 in1007.5 mb - 0.00 in0.0 mm 0.00 in0.0 mm
12:30 AM 48.7°F9.3°C 44.7°F7.1°C 86% Calm Calm -- 29.75 in1007.5 mb - 0.00 in0.0 mm 0.00 in0.0 mm
12:40 AM 47.2°F8.4°C 44.2°F6.8°C 89% 2.3 mph E3.7 kmh E 4.6 mph7.4 kmh 29.75 in1007.5 mb - 0.00 in0.0 mm 0.00 in0.0 mm
12:50 AM 46.5°F8.1°C 43.7°F6.5°C 90% 3.5 mph SE5.6 kmh SE 5.8 mph9.3 kmh 29.74 in1007.1 mb - 0.00 in0.0 mm 0.00 in0.0 mm
01:00 AM 46.1°F7.8°C 43.6°F6.4°C 91% Calm Calm -- 29.74 in1007.1 mb - 0.00 in0.0 mm 0.00 in0.0 mm
01:10 AM 46.1°F7.8°C 43.6°F6.4°C 91% Calm Calm 2.3 mph3.7 kmh 29.74 in1007.1 mb - 0.00 in0.0 mm 0.00 in0.0 mm
01:20 AM 46.5°F8.1°C 43.8°F6.6°C 90% Calm Calm 2.3 mph3.7 kmh 29.74 in1007.1 mb - 0.00 in0.0 mm 0.00 in0.0 mm
01:30 AM 47.0°F8.3°C 43.9°F6.6°C 89% Calm Calm 2.3 mph3.7 kmh 29.74 in1007.1 mb - 0.00 in0.0 mm 0.00 in0.0 mm
01:40 AM 47.2°F8.4°C 44.4°F6.9°C 90% Calm Calm 2.3 mph3.7 kmh 29.74 in1007.1 mb - 0.00 in0.0 mm 0.00 in0.0 mm
01:50 AM 47.1°F8.4°C 44.3°F6.8°C 90% 2.3 mph WSW3.7 kmh WSW 2.3 mph3.7 kmh 29.74 in1007.1 mb - 0.00 in0.0 mm 0.00 in0.0 mm
02:00 AM 47.0°F8.3°C 44.5°F6.9°C 91% 1.2 mph NW1.9 kmh NW 5.8 mph9.3 kmh 29.74 in1007.1 mb - 0.00 in0.0 mm 0.00 in0.0 mm
02:10 AM 46.9°F8.3°C 44.4°F6.9°C 91% 2.3 mph W3.7 kmh W 5.8 mph9.3 kmh 29.73 in1006.8 mb - 0.00 in0.0 mm 0.00 in0.0 mm
02:20 AM 46.9°F8.3°C 44.7°F7.1°C 92% 1.2 mph W1.9 kmh W 2.3 mph3.7 kmh 29.74 in1007.1 mb - 0.00 in0.0 mm 0.00 in0.0 mm
02:30 AM 46.9°F8.3°C 44.7°F7.1°C 92% 1.2 mph W1.9 kmh W 2.3 mph3.7 kmh 29.74 in1007.1 mb - 0.00 in0.0 mm 0.00 in0.0 mm
02:40 AM 46.9°F8.3°C 44.7°F7.1°C 92% 1.2 mph WNW1.9 kmh WNW 4.6 mph7.4 kmh 29.75 in1007.5 mb - 0.00 in0.0 mm 0.00 in0.0 mm
02:50 AM 47.0°F8.3°C 44.8°F7.1°C 92% 2.3 mph W3.7 kmh W 5.8 mph9.3 kmh 29.75 in1007.5 mb - 0.00 in0.0 mm 0.00 in0.0 mm
03:00 AM 47.0°F8.3°C 44.5°F6.9°C 91% Calm Calm -- 29.75 in1007.5 mb - 0.00 in0.0 mm 0.00 in0.0 mm
03:10 AM 46.9°F8.3°C 44.4°F6.9°C 91% Calm Calm -- 29.76 in1007.8 mb - 0.00 in0.0 mm 0.00 in0.0 mm
03:20 AM 46.9°F8.3°C 44.4°F6.9°C 91% Calm Calm -- 29.76 in1007.8 mb - 0.00 in0.0 mm 0.00 in0.0 mm
03:30 AM 46.8°F8.2°C 44.3°F6.8°C 91% Calm Calm -- 29.76 in1007.8 mb - 0.00 in0.0 mm 0.00 in0.0 mm
03:40 AM 46.7°F8.2°C 44.2°F6.8°C 91% Calm Calm -- 29.77 in1008.1 mb - 0.00 in0.0 mm 0.00 in0.0 mm
03:50 AM 46.7°F8.2°C 44.2°F6.8°C 91% 1.2 mph W1.9 kmh W 5.8 mph9.3 kmh 29.77 in1008.1 mb - 0.00 in0.0 mm 0.00 in0.0 mm
04:00 AM 46.9°F8.3°C 44.1°F6.7°C 90% Calm Calm -- 29.77 in1008.1 mb - 0.00 in0.0 mm 0.00 in0.0 mm
04:10 AM 47.2°F8.4°C 44.1°F6.7°C 89% 3.5 mph W5.6 kmh W 11.5 mph18.5 kmh 29.78 in1008.5 mb - 0.00 in0.0 mm 0.00 in0.0 mm
04:20 AM 47.7°F8.7°C 44.1°F6.7°C 87% 6.9 mph W11.1 kmh W 11.5 mph18.5 kmh 29.79 in1008.8 mb - 0.00 in0.0 mm 0.00 in0.0 mm
04:30 AM 48.7°F9.3°C 44.4°F6.9°C 85% 5.8 mph WNW9.3 kmh WNW 9.2 mph14.8 kmh 29.80 in1009.1 mb - 0.00 in0.0 mm 0.00 in0.0 mm
04:40 AM 48.6°F9.2°C 44.3°F6.8°C 85% 3.5 mph NW5.6 kmh NW 8.1 mph13.0 kmh 29.80 in1009.1 mb - 0.00 in0.0 mm 0.00 in0.0 mm
04:50 AM 48.5°F9.2°C 44.5°F6.9°C 86% 2.3 mph WNW3.7 kmh WNW 6.9 mph11.1 kmh 29.80 in1009.1 mb - 0.00 in0.0 mm 0.00 in0.0 mm
05:00 AM 48.3°F9.1°C 44.3°F6.8°C 86% 2.3 mph WNW3.7 kmh WNW 6.9 mph11.1 kmh 29.80 in1009.1 mb - 0.00 in0.0 mm 0.00 in0.0 mm
05:10 AM 48.1°F8.9°C 44.4°F6.9°C 87% 2.3 mph WNW3.7 kmh WNW 6.9 mph11.1 kmh 29.80 in1009.1 mb - 0.00 in0.0 mm 0.00 in0.0 mm
05:20 AM 47.9°F8.8°C 43.9°F6.6°C 86% 3.5 mph WNW5.6 kmh WNW 6.9 mph11.1 kmh 29.80 in1009.1 mb - 0.00 in0.0 mm 0.00 in0.0 mm
05:30 AM 47.7°F8.7°C 44.0°F6.7°C 87% 1.2 mph WNW1.9 kmh WNW 4.6 mph7.4 kmh 29.81 in1009.5 mb - 0.00 in0.0 mm 0.00 in0.0 mm
05:40 AM 47.5°F8.6°C 43.5°F6.4°C 86% 4.6 mph WNW7.4 kmh WNW 11.5 mph18.5 kmh 29.81 in1009.5 mb - 0.00 in0.0 mm 0.00 in0.0 mm
05:50 AM 47.6°F8.7°C 43.6°F6.4°C 86% 6.9 mph WNW11.1 kmh WNW 11.5 mph18.5 kmh 29.82 in1009.8 mb - 0.00 in0.0 mm 0.00 in0.0 mm
06:00 AM 47.6°F8.7°C 43.4°F6.3°C 85% 6.9 mph WNW11.1 kmh WNW 9.2 mph14.8 kmh 29.82 in1009.8 mb - 0.00 in0.0 mm 0.00 in0.0 mm
06:10 AM 47.9°F8.8°C 43.6°F6.4°C 85% 5.8 mph WNW9.3 kmh WNW 12.7 mph20.4 kmh 29.82 in1009.8 mb - 0.00 in0.0 mm 0.00 in0.0 mm
06:20 AM 47.9°F8.8°C 43.6°F6.4°C 85% 4.6 mph W7.4 kmh W 9.2 mph14.8 kmh 29.83 in1010.2 mb - 0.00 in0.0 mm 0.00 in0.0 mm
06:30 AM 47.7°F8.7°C 43.4°F6.3°C 85% 4.6 mph W7.4 kmh W 8.1 mph13.0 kmh 29.83 in1010.2 mb - 0.00 in0.0 mm 0.00 in0.0 mm
06:40 AM 47.6°F8.7°C 43.3°F6.3°C 85% 4.6 mph WNW7.4 kmh WNW 5.8 mph9.3 kmh 29.84 in1010.5 mb - 0.00 in0.0 mm 0.00 in0.0 mm
06:50 AM 47.5°F8.6°C 43.2°F6.2°C 85% 4.6 mph WNW7.4 kmh WNW 9.2 mph14.8 kmh 29.84 in1010.5 mb - 0.00 in0.0 mm 0.00 in0.0 mm
07:00 AM 47.5°F8.6°C 42.9°F6.1°C 84% 4.6 mph W7.4 kmh W 8.1 mph13.0 kmh 29.84 in1010.5 mb - 0.00 in0.0 mm 0.00 in0.0 mm
07:10 AM 47.5°F8.6°C 42.6°F5.9°C 83% 4.6 mph WNW7.4 kmh WNW 5.8 mph9.3 kmh 29.85 in1010.8 mb - 0.00 in0.0 mm 0.00 in0.0 mm
07:20 AM 47.4°F8.6°C 42.5°F5.8°C 83% 2.3 mph W3.7 kmh W 5.8 mph9.3 kmh 29.86 in1011.2 mb - 0.00 in0.0 mm 0.00 in0.0 mm
07:30 AM 47.2°F8.4°C 42.3°F5.7°C 83% 2.3 mph WNW3.7 kmh WNW 4.6 mph7.4 kmh 29.87 in1011.5 mb - 0.00 in0.0 mm 0.00 in0.0 mm
07:40 AM 47.2°F8.4°C 42.3°F5.7°C 83% 2.3 mph WSW3.7 kmh WSW 5.8 mph9.3 kmh 29.87 in1011.5 mb - 0.00 in0.0 mm 0.00 in0.0 mm
07:50 AM 47.3°F8.5°C 42.1°F5.6°C 82% 1.2 mph SW1.9 kmh SW 2.3 mph3.7 kmh 29.86 in1011.2 mb - 0.00 in0.0 mm 0.00 in0.0 mm
08:00 AM 47.3°F8.5°C 42.4°F5.8°C 83% Calm Calm -- 29.87 in1011.5 mb - 0.00 in0.0 mm 0.00 in0.0 mm
08:10 AM 47.2°F8.4°C 42.0°F5.6°C 82% Calm Calm -- 29.87 in1011.5 mb - 0.00 in0.0 mm 0.00 in0.0 mm
08:20 AM 47.2°F8.4°C 42.3°F5.7°C 83% Calm Calm 1.2 mph1.9 kmh 29.88 in1011.9 mb - 0.00 in0.0 mm 0.00 in0.0 mm
08:30 AM 47.4°F8.6°C 42.8°F6.0°C 84% Calm Calm 2.3 mph3.7 kmh 29.89 in1012.2 mb - 0.00 in0.0 mm 0.00 in0.0 mm
08:40 AM 47.4°F8.6°C 43.2°F6.2°C 85% 2.3 mph W3.7 kmh W 4.6 mph7.4 kmh 29.90 in1012.5 mb - 0.00 in0.0 mm 0.00 in0.0 mm
08:50 AM 47.4°F8.6°C 43.1°F6.2°C 85% 1.2 mph W1.9 kmh W 2.3 mph3.7 kmh 29.91 in1012.9 mb - 0.00 in0.0 mm 0.00 in0.0 mm
09:00 AM 47.4°F8.6°C 43.4°F6.3°C 86% Calm Calm 5.8 mph9.3 kmh 29.91 in1012.9 mb - 0.00 in0.0 mm 0.00 in0.0 mm
09:10 AM 47.6°F8.7°C 42.1°F5.6°C 81% 6.9 mph NW11.1 kmh NW 12.7 mph20.4 kmh 29.91 in1012.9 mb - 0.00 in0.0 mm 0.00 in0.0 mm
09:20 AM 47.7°F8.7°C 40.9°F4.9°C 77% 6.9 mph WNW11.1 kmh WNW 12.7 mph20.4 kmh 29.92 in1013.2 mb - 0.00 in0.0 mm 0.00 in0.0 mm
09:30 AM 47.9°F8.8°C 41.0°F5.0°C 77% 4.6 mph WNW7.4 kmh WNW 5.8 mph9.3 kmh 29.92 in1013.2 mb - 0.00 in0.0 mm 0.00 in0.0 mm
09:40 AM 47.9°F8.8°C 41.4°F5.2°C 78% 3.5 mph W5.6 kmh W 6.9 mph11.1 kmh 29.92 in1013.2 mb - 0.00 in0.0 mm 0.00 in0.0 mm
09:50 AM 48.1°F8.9°C 41.6°F5.3°C 78% 4.6 mph WNW7.4 kmh WNW 8.1 mph13.0 kmh 29.93 in1013.5 mb - 0.00 in0.0 mm 0.00 in0.0 mm
10:00 AM 48.0°F8.9°C 41.8°F5.4°C 79% 5.8 mph WNW9.3 kmh WNW 8.1 mph13.0 kmh 29.94 in1013.9 mb - 0.00 in0.0 mm 0.00 in0.0 mm
10:10 AM 48.0°F8.9°C 41.5°F5.3°C 78% 3.5 mph NW5.6 kmh NW 5.8 mph9.3 kmh 29.94 in1013.9 mb - 0.00 in0.0 mm 0.00 in0.0 mm
10:20 AM 48.1°F8.9°C 41.2°F5.1°C 77% 3.5 mph WNW5.6 kmh WNW 4.6 mph7.4 kmh 29.95 in1014.2 mb - 0.00 in0.0 mm 0.00 in0.0 mm
10:30 AM 48.2°F9.0°C 41.7°F5.4°C 78% 2.3 mph W3.7 kmh W 8.1 mph13.0 kmh 29.95 in1014.2 mb - 0.00 in0.0 mm 0.00 in0.0 mm
10:40 AM 48.3°F9.1°C 41.8°F5.4°C 78% 5.8 mph WNW9.3 kmh WNW 8.1 mph13.0 kmh 29.95 in1014.2 mb - 0.00 in0.0 mm 0.00 in0.0 mm
10:50 AM 48.4°F9.1°C 41.2°F5.1°C 76% 4.6 mph W7.4 kmh W 8.1 mph13.0 kmh 29.96 in1014.6 mb - 0.00 in0.0 mm 0.00 in0.0 mm
11:00 AM 48.6°F9.2°C 41.7°F5.4°C 77% 3.5 mph W5.6 kmh W 5.8 mph9.3 kmh 29.96 in1014.6 mb - 0.00 in0.0 mm 0.00 in0.0 mm
11:10 AM 48.6°F9.2°C 41.4°F5.2°C 76% 4.6 mph W7.4 kmh W 8.1 mph13.0 kmh 29.96 in1014.6 mb - 0.00 in0.0 mm 0.00 in0.0 mm
11:20 AM 48.8°F9.3°C 41.9°F5.5°C 77% 3.5 mph W5.6 kmh W 6.9 mph11.1 kmh 29.96 in1014.6 mb - 0.00 in0.0 mm 0.00 in0.0 mm
11:30 AM 49.0°F9.4°C 42.1°F5.6°C 77% 3.5 mph W5.6 kmh W 9.2 mph14.8 kmh 29.97 in1014.9 mb - 0.00 in0.0 mm 0.00 in0.0 mm
11:40 AM 49.2°F9.6°C 42.3°F5.7°C 77% 5.8 mph W9.3 kmh W 9.2 mph14.8 kmh 29.97 in1014.9 mb - 0.00 in0.0 mm 0.00 in0.0 mm
11:50 AM 49.2°F9.6°C 42.3°F5.7°C 77% 4.6 mph WNW7.4 kmh WNW 8.1 mph13.0 kmh 29.97 in1014.9 mb - 0.00 in0.0 mm 0.00 in0.0 mm
12:00 PM 49.2°F9.6°C 42.0°F5.6°C 76% Calm Calm 5.8 mph9.3 kmh 29.97 in1014.9 mb - 0.00 in0.0 mm 0.00 in0.0 mm
12:10 PM 49.2°F9.6°C 43.3°F6.3°C 80% 1.2 mph W1.9 kmh W 5.8 mph9.3 kmh 29.98 in1015.2 mb - 0.00 in0.0 mm 0.00 in0.0 mm
12:20 PM 49.0°F9.4°C 43.4°F6.3°C 81% 2.3 mph WSW3.7 kmh WSW 6.9 mph11.1 kmh 29.97 in1014.9 mb - 0.00 in0.0 mm 0.00 in0.0 mm
12:30 PM 49.1°F9.5°C 43.5°F6.4°C 81% 3.5 mph W5.6 kmh W 5.8 mph9.3 kmh 29.97 in1014.9 mb - 0.00 in0.0 mm 0.00 in0.0 mm
12:40 PM 49.3°F9.6°C 43.7°F6.5°C 81% 1.2 mph SW1.9 kmh SW 4.6 mph7.4 kmh 29.96 in1014.6 mb - 0.00 in0.0 mm 0.00 in0.0 mm
12:50 PM 49.5°F9.7°C 43.6°F6.4°C 80% 5.8 mph W9.3 kmh W 8.1 mph13.0 kmh 29.96 in1014.6 mb - 0.00 in0.0 mm 0.00 in0.0 mm
01:00 PM 49.4°F9.7°C 43.2°F6.2°C 79% 5.8 mph WSW9.3 kmh WSW 8.1 mph13.0 kmh 29.96 in1014.6 mb - 0.00 in0.0 mm 0.00 in0.0 mm
01:10 PM 49.6°F9.8°C 43.7°F6.5°C 80% 2.3 mph WSW3.7 kmh WSW 8.1 mph13.0 kmh 29.97 in1014.9 mb - 0.00 in0.0 mm 0.00 in0.0 mm
01:20 PM 49.6°F9.8°C 43.4°F6.3°C 79% 3.5 mph WNW5.6 kmh WNW 8.1 mph13.0 kmh 29.97 in1014.9 mb - 0.00 in0.0 mm 0.00 in0.0 mm
01:30 PM 49.6°F9.8°C 43.7°F6.5°C 80% 3.5 mph W5.6 kmh W 8.1 mph13.0 kmh 29.97 in1014.9 mb - 0.00 in0.0 mm 0.00 in0.0 mm
01:40 PM 49.7°F9.8°C 43.8°F6.6°C 80% 2.3 mph W3.7 kmh W 8.1 mph13.0 kmh 29.97 in1014.9 mb - 0.00 in0.0 mm 0.00 in0.0 mm
01:50 PM 49.8°F9.9°C 43.8°F6.6°C 80% 1.2 mph WNW1.9 kmh WNW 4.6 mph7.4 kmh 29.97 in1014.9 mb - 0.00 in0.0 mm 0.00 in0.0 mm
02:00 PM 50.0°F10.0°C 44.1°F6.7°C 80% 3.5 mph WNW5.6 kmh WNW 6.9 mph11.1 kmh 29.97 in1014.9 mb - 0.00 in0.0 mm 0.00 in0.0 mm
02:10 PM 49.9°F9.9°C 43.7°F6.5°C 79% 2.3 mph WNW3.7 kmh WNW 5.8 mph9.3 kmh 29.97 in1014.9 mb - 0.00 in0.0 mm 0.00 in0.0 mm
02:20 PM 50.0°F10.0°C 44.1°F6.7°C 80% 2.3 mph WNW3.7 kmh WNW 5.8 mph9.3 kmh 29.96 in1014.6 mb - 0.00 in0.0 mm 0.00 in0.0 mm
02:30 PM 50.3°F10.2°C 44.4°F6.9°C 80% Calm Calm -- 29.96 in1014.6 mb - 0.00 in0.0 mm 0.00 in0.0 mm
02:40 PM 50.4°F10.2°C 44.1°F6.7°C 79% 2.3 mph SW3.7 kmh SW 4.6 mph7.4 kmh 29.96 in1014.6 mb - 0.00 in0.0 mm 0.00 in0.0 mm
02:50 PM 50.5°F10.3°C 44.2°F6.8°C 79% 3.5 mph W5.6 kmh W 6.9 mph11.1 kmh 29.96 in1014.6 mb - 0.00 in0.0 mm 0.00 in0.0 mm
03:00 PM 50.6°F10.3°C 44.7°F7.1°C 80% 4.6 mph W7.4 kmh W 6.9 mph11.1 kmh 29.96 in1014.6 mb - 0.00 in0.0 mm 0.00 in0.0 mm
03:10 PM 50.4°F10.2°C 44.1°F6.7°C 79% 3.5 mph WNW5.6 kmh WNW 6.9 mph11.1 kmh 29.96 in1014.6 mb - 0.00 in0.0 mm 0.00 in0.0 mm
03:20 PM 50.2°F10.1°C 44.3°F6.8°C 80% 4.6 mph W7.4 kmh W 8.1 mph13.0 kmh 29.96 in1014.6 mb - 0.00 in0.0 mm 0.00 in0.0 mm
03:30 PM 50.0°F10.0°C 44.4°F6.9°C 81% 2.3 mph SW3.7 kmh SW 5.8 mph9.3 kmh 29.96 in1014.6 mb - 0.00 in0.0 mm 0.00 in0.0 mm
03:40 PM 49.7°F9.8°C 45.1°F7.3°C 84% Calm Calm -- 29.97 in1014.9 mb - 0.00 in0.0 mm 0.00 in0.0 mm
03:50 PM 49.3°F9.6°C 45.0°F7.2°C 85% 1.2 mph S1.9 kmh S 5.8 mph9.3 kmh 29.97 in1014.9 mb - 0.00 in0.0 mm 0.00 in0.0 mm
04:00 PM 49.0°F9.4°C 45.0°F7.2°C 86% 2.3 mph SSE3.7 kmh SSE 5.8 mph9.3 kmh 29.96 in1014.6 mb - 0.00 in0.0 mm 0.00 in0.0 mm
04:10 PM 48.8°F9.3°C 45.7°F7.6°C 89% 3.5 mph NW5.6 kmh NW 8.1 mph13.0 kmh 29.96 in1014.6 mb - 0.00 in0.0 mm 0.00 in0.0 mm
04:20 PM 48.6°F9.2°C 45.8°F7.7°C 90% 5.8 mph SW9.3 kmh SW 9.2 mph14.8 kmh 29.96 in1014.6 mb - 0.00 in0.0 mm 0.00 in0.0 mm
04:30 PM 48.5°F9.2°C 46.0°F7.8°C 91% 4.6 mph NNW7.4 kmh NNW 8.1 mph13.0 kmh 29.97 in1014.9 mb - 0.00 in0.0 mm 0.00 in0.0 mm
04:40 PM 48.4°F9.1°C 45.9°F7.7°C 91% 4.6 mph SW7.4 kmh SW 8.1 mph13.0 kmh 29.97 in1014.9 mb - 0.00 in0.0 mm 0.00 in0.0 mm
04:50 PM 48.4°F9.1°C 46.2°F7.9°C 92% 3.5 mph SW5.6 kmh SW 8.1 mph13.0 kmh 29.97 in1014.9 mb - 0.00 in0.0 mm 0.00 in0.0 mm
05:00 PM 48.1°F8.9°C 46.2°F7.9°C 93% 2.3 mph S3.7 kmh S 4.6 mph7.4 kmh 29.97 in1014.9 mb - 0.00 in0.0 mm 0.00 in0.0 mm
05:10 PM 47.9°F8.8°C 46.2°F7.9°C 94% 2.3 mph WSW3.7 kmh WSW 11.5 mph18.5 kmh 29.97 in1014.9 mb - 0.00 in0.0 mm 0.00 in0.0 mm
05:20 PM 47.7°F8.7°C 46.3°F7.9°C 95% 3.5 mph WNW5.6 kmh WNW 8.1 mph13.0 kmh 29.97 in1014.9 mb - 0.00 in0.0 mm 0.00 in0.0 mm
05:30 PM 47.5°F8.6°C 46.4°F8.0°C 96% 3.5 mph SW5.6 kmh SW 11.5 mph18.5 kmh 29.97 in1014.9 mb - 0.00 in0.0 mm 0.00 in0.0 mm
05:40 PM 47.6°F8.7°C 46.8°F8.2°C 97% 4.6 mph WSW7.4 kmh WSW 11.5 mph18.5 kmh 29.97 in1014.9 mb - 0.00 in0.0 mm 0.00 in0.0 mm
05:50 PM 47.8°F8.8°C 46.9°F8.3°C 97% 6.9 mph WSW11.1 kmh WSW 11.5 mph18.5 kmh 29.97 in1014.9 mb - 0.00 in0.0 mm 0.00 in0.0 mm
06:00 PM 47.9°F8.8°C 47.1°F8.4°C 97% 5.8 mph W9.3 kmh W 11.5 mph18.5 kmh 29.97 in1014.9 mb - 0.00 in0.0 mm 0.00 in0.0 mm
06:10 PM 47.9°F8.8°C 47.1°F8.4°C 97% 6.9 mph WNW11.1 kmh WNW 13.8 mph22.2 kmh 29.97 in1014.9 mb - 0.00 in0.0 mm 0.00 in0.0 mm
06:20 PM 47.9°F8.8°C 47.1°F8.4°C 97% 5.8 mph W9.3 kmh W 11.5 mph18.5 kmh 29.97 in1014.9 mb - 0.00 in0.0 mm 0.00 in0.0 mm
06:30 PM 48.0°F8.9°C 47.2°F8.4°C 97% 5.8 mph WNW9.3 kmh WNW 8.1 mph13.0 kmh 29.98 in1015.2 mb - 0.00 in0.0 mm 0.00 in0.0 mm
06:40 PM 48.3°F9.1°C 47.5°F8.6°C 97% 3.5 mph WSW5.6 kmh WSW 6.9 mph11.1 kmh 29.98 in1015.2 mb - 0.00 in0.0 mm 0.00 in0.0 mm
06:50 PM 48.5°F9.2°C 47.7°F8.7°C 97% 4.6 mph W7.4 kmh W 8.1 mph13.0 kmh 29.97 in1014.9 mb - 0.00 in0.0 mm 0.00 in0.0 mm
07:00 PM 48.7°F9.3°C 47.8°F8.8°C 97% 3.5 mph WSW5.6 kmh WSW 6.9 mph11.1 kmh 29.98 in1015.2 mb - 0.00 in0.0 mm 0.00 in0.0 mm
07:10 PM 48.8°F9.3°C 48.3°F9.1°C 98% 4.6 mph W7.4 kmh W 6.9 mph11.1 kmh 29.97 in1014.9 mb - 0.00 in0.0 mm 0.00 in0.0 mm
07:20 PM 48.8°F9.3°C 48.3°F9.1°C 98% 4.6 mph WSW7.4 kmh WSW 8.1 mph13.0 kmh 29.96 in1014.6 mb - 0.00 in0.0 mm 0.00 in0.0 mm
07:30 PM 48.9°F9.4°C 48.4°F9.1°C 98% 4.6 mph SW7.4 kmh SW 8.1 mph13.0 kmh 29.96 in1014.6 mb - 0.00 in0.0 mm 0.00 in0.0 mm
07:40 PM 48.9°F9.4°C 48.6°F9.2°C 99% 3.5 mph WSW5.6 kmh WSW 6.9 mph11.1 kmh 29.96 in1014.6 mb - 0.00 in0.0 mm 0.00 in0.0 mm
07:50 PM 49.0°F9.4°C 48.7°F9.3°C 99% 9.2 mph SSW14.8 kmh SSW 12.7 mph20.4 kmh 29.95 in1014.2 mb - 0.00 in0.0 mm 0.00 in0.0 mm
08:00 PM 49.2°F9.6°C 48.9°F9.4°C 99% 2.3 mph WNW3.7 kmh WNW 5.8 mph9.3 kmh 29.96 in1014.6 mb - 0.00 in0.0 mm 0.00 in0.0 mm
08:10 PM 49.3°F9.6°C 49.1°F9.5°C 99% 5.8 mph W9.3 kmh W 9.2 mph14.8 kmh 29.95 in1014.2 mb - 0.00 in0.0 mm 0.00 in0.0 mm
08:20 PM 49.5°F9.7°C 49.2°F9.6°C 99% 6.9 mph WSW11.1 kmh WSW 6.9 mph11.1 kmh 29.95 in1014.2 mb - 0.00 in0.0 mm 0.00 in0.0 mm
08:30 PM 49.6°F9.8°C 49.3°F9.6°C 99% 3.5 mph WSW5.6 kmh WSW 8.1 mph13.0 kmh 29.94 in1013.9 mb - 0.00 in0.0 mm 0.00 in0.0 mm
08:40 PM 49.6°F9.8°C 49.3°F9.6°C 99% 4.6 mph SSW7.4 kmh SSW 8.1 mph13.0 kmh 29.93 in1013.5 mb - 0.00 in0.0 mm 0.00 in0.0 mm
08:50 PM 49.5°F9.7°C 49.2°F9.6°C 99% Calm Calm -- 29.93 in1013.5 mb - 0.00 in0.0 mm 0.00 in0.0 mm
09:00 PM 49.5°F9.7°C 49.2°F9.6°C 99% Calm Calm 4.6 mph7.4 kmh 29.93 in1013.5 mb - 0.00 in0.0 mm 0.00 in0.0 mm
09:10 PM 49.5°F9.7°C 49.2°F9.6°C 99% 5.8 mph SE9.3 kmh SE 8.1 mph13.0 kmh 29.92 in1013.2 mb - 0.00 in0.0 mm 0.00 in0.0 mm
09:20 PM 49.5°F9.7°C 49.2°F9.6°C 99% 4.6 mph SW7.4 kmh SW 9.2 mph14.8 kmh 29.91 in1012.9 mb - 0.00 in0.0 mm 0.00 in0.0 mm
09:30 PM 49.7°F9.8°C 48.9°F9.4°C 97% 4.6 mph WNW7.4 kmh WNW 8.1 mph13.0 kmh 29.91 in1012.9 mb - 0.00 in0.0 mm 0.00 in0.0 mm
09:40 PM 49.8°F9.9°C 48.7°F9.3°C 96% 5.8 mph WSW9.3 kmh WSW 11.5 mph18.5 kmh 29.91 in1012.9 mb - 0.00 in0.0 mm 0.00 in0.0 mm
09:50 PM 50.0°F10.0°C 48.9°F9.4°C 96% 5.8 mph S9.3 kmh S 11.5 mph18.5 kmh 29.91 in1012.9 mb - 0.00 in0.0 mm 0.00 in0.0 mm
10:00 PM 50.1°F10.1°C 49.0°F9.4°C 96% 5.8 mph SW9.3 kmh SW 9.2 mph14.8 kmh 29.90 in1012.5 mb - 0.00 in0.0 mm 0.00 in0.0 mm
10:10 PM 50.2°F10.1°C 49.4°F9.7°C 97% 12.7 mph W20.4 kmh W 20.7 mph33.3 kmh 29.89 in1012.2 mb - 0.00 in0.0 mm 0.00 in0.0 mm
10:20 PM 50.3°F10.2°C 49.5°F9.7°C 97% 12.7 mph WSW20.4 kmh WSW 21.9 mph35.2 kmh 29.89 in1012.2 mb - 0.00 in0.0 mm 0.00 in0.0 mm
10:30 PM 50.4°F10.2°C 49.9°F9.9°C 98% 13.8 mph SSW22.2 kmh SSW 21.9 mph35.2 kmh 29.88 in1011.9 mb - 0.00 in0.0 mm 0.00 in0.0 mm
10:40 PM 50.5°F10.3°C 50.2°F10.1°C 99% 12.7 mph WSW20.4 kmh WSW 16.1 mph25.9 kmh 29.88 in1011.9 mb - 0.00 in0.0 mm 0.00 in0.0 mm
10:50 PM 50.4°F10.2°C 50.1°F10.1°C 99% 11.5 mph SW18.5 kmh SW 23.0 mph37.0 kmh 29.87 in1011.5 mb - 0.00 in0.0 mm 0.00 in0.0 mm
11:00 PM 50.5°F10.3°C 50.2°F10.1°C 99% 12.7 mph WSW20.4 kmh WSW 25.3 mph40.7 kmh 29.86 in1011.2 mb - 0.00 in0.0 mm 0.00 in0.0 mm
11:10 PM 50.4°F10.2°C 50.1°F10.1°C 99% 9.2 mph W14.8 kmh W 15.0 mph24.1 kmh 29.87 in1011.5 mb - 0.00 in0.0 mm 0.00 in0.0 mm
11:20 PM 50.4°F10.2°C 50.1°F10.1°C 99% 10.4 mph SW16.7 kmh SW 16.1 mph25.9 kmh 29.87 in1011.5 mb - 0.00 in0.0 mm 0.00 in0.0 mm
11:30 PM 50.4°F10.2°C 50.1°F10.1°C 99% 12.7 mph WSW20.4 kmh WSW 20.7 mph33.3 kmh 29.87 in1011.5 mb - 0.00 in0.0 mm 0.00 in0.0 mm
11:40 PM 50.4°F10.2°C 50.1°F10.1°C 99% 13.8 mph W22.2 kmh W 19.6 mph31.5 kmh 29.86 in1011.2 mb - 0.00 in0.0 mm 0.00 in0.0 mm
11:50 PM 50.5°F10.3°C 50.2°F10.1°C 99% 9.2 mph SW14.8 kmh SW 16.1 mph25.9 kmh 29.86 in1011.2 mb - 0.00 in0.0 mm 0.00 in0.0 mm